Weather at Borden Airport [CLOSED]

Public forecast

Using degrees Celsius for public forecast. Weather courtesy of forecast.io.

Closest aviation weather report (METAR) to Borden Airport

Closest report is CFB Borden, 0.4 nm (0.7 km) NNE. Retrieved 2021/01/26 17:38 UTC (0 seconds ago):

CYBN 261738Z AUTO 07013KT 1/4SM -SN VV002 M04/M04 A2977

Closest aviation forecast (TAF) to Borden Airport

Closest forecast is CFB Borden, 0.4 nm (0.7 km) NNE. Retrieved 2021/01/26 12:33 UTC (5 hours ago):

TAF TAF CYBN 261130Z 2612/2624 VRB03KT P6SM BKN120 TEMPO 2615/2616 3SM -SN OVC040 FM261600 08010G20KT 1SM -SN OVC010 TEMPO 2616/2624 3SM -SN BKN015 OVC040 PROB30 2616/2624 1/2SM SHSN VV005 RMK FCST BASED ON AUTO OBS NXT FCST BY 261800Z